createdAt,value
2023-12-05T00:00:10.812Z,6.13
2023-12-05T00:00:53.515Z,5.70
2023-12-05T00:01:36.570Z,4.70
2023-12-05T00:02:16.830Z,5.80
2023-12-05T00:02:56.740Z,5.70
2023-12-05T00:03:37.885Z,5.13
2023-12-05T00:04:17.726Z,5.30
2023-12-05T00:04:57.917Z,5.28
2023-12-05T00:05:38.372Z,4.28
2023-12-05T00:06:18.073Z,5.18
2023-12-05T00:06:57.899Z,4.70
2023-12-05T00:07:37.877Z,4.82
2023-12-05T00:08:19.636Z,5.07
2023-12-05T00:08:59.278Z,4.80
2023-12-05T00:09:39.021Z,4.93
2023-12-05T00:10:19.023Z,5.30
2023-12-05T00:10:58.870Z,4.18
2023-12-05T00:11:42.489Z,3.83
2023-12-05T00:12:22.227Z,4.25
2023-12-05T00:13:05.714Z,4.22
2023-12-05T00:13:45.730Z,4.45
2023-12-05T00:14:25.465Z,4.95
2023-12-05T00:15:05.966Z,4.35
2023-12-05T00:15:45.984Z,4.72
2023-12-05T00:16:25.937Z,4.50
2023-12-05T00:17:05.879Z,4.72
2023-12-05T00:17:46.260Z,4.15
2023-12-05T00:18:27.213Z,3.78
2023-12-05T00:19:07.105Z,4.68
2023-12-05T00:19:46.973Z,4.63
2023-12-05T00:20:26.655Z,3.65
2023-12-05T00:21:07.714Z,4.22
2023-12-05T00:21:47.617Z,3.60
2023-12-05T00:22:30.459Z,3.40
2023-12-05T00:23:10.251Z,3.58
2023-12-05T00:23:50.163Z,3.35
2023-12-05T00:24:30.004Z,3.30
2023-12-05T00:25:10.801Z,3.13
2023-12-05T00:25:50.578Z,3.80
2023-12-05T00:26:30.416Z,3.33
2023-12-05T00:27:11.340Z,3.13
2023-12-05T00:27:51.166Z,3.17
2023-12-05T00:28:31.770Z,2.92
2023-12-05T00:29:11.717Z,2.92
2023-12-05T00:29:51.786Z,2.97
2023-12-05T00:30:31.483Z,3.20
2023-12-05T00:31:11.473Z,3.50
2023-12-05T00:31:51.461Z,3.20
2023-12-05T00:32:31.276Z,3.00
2023-12-05T00:33:11.572Z,3.55
2023-12-05T00:33:51.930Z,3.15
2023-12-05T00:34:32.059Z,3.28
2023-12-05T00:35:11.859Z,2.85
2023-12-05T00:35:51.567Z,3.20
2023-12-05T00:36:31.300Z,3.15
2023-12-05T00:37:11.182Z,4.20
2023-12-05T00:37:51.184Z,3.20
2023-12-05T00:38:30.932Z,3.63
2023-12-05T00:39:10.657Z,3.20
2023-12-05T00:39:50.689Z,3.10
2023-12-05T00:40:31.974Z,3.35
2023-12-05T00:41:11.897Z,3.85
2023-12-05T00:41:51.652Z,3.65
2023-12-05T00:42:31.551Z,3.45
2023-12-05T00:43:11.479Z,3.45
2023-12-05T00:43:51.187Z,3.25
2023-12-05T00:44:30.892Z,3.85
2023-12-05T00:45:14.637Z,3.35
2023-12-05T00:45:54.416Z,3.25
2023-12-05T00:46:34.622Z,3.28
2023-12-05T00:47:14.298Z,3.70
2023-12-05T00:47:55.609Z,3.80
2023-12-05T00:48:35.876Z,3.28
2023-12-05T00:49:15.836Z,3.25
2023-12-05T00:49:55.699Z,2.97
2023-12-05T00:50:40.800Z,3.15
2023-12-05T00:51:25.446Z,3.30
2023-12-05T00:52:05.803Z,3.13
2023-12-05T00:52:45.660Z,3.25
2023-12-05T00:53:25.736Z,3.25
2023-12-05T00:54:05.805Z,3.50
2023-12-05T00:54:45.669Z,3.15
2023-12-05T00:55:25.366Z,3.13
2023-12-05T00:56:05.570Z,3.22
2023-12-05T00:56:45.282Z,3.58
2023-12-05T00:57:25.754Z,3.03
2023-12-05T00:58:05.520Z,3.70
2023-12-05T00:58:45.412Z,3.33
2023-12-05T00:59:25.484Z,3.20
2023-12-05T01:00:07.307Z,3.15
2023-12-05T01:00:47.222Z,3.50
2023-12-05T01:01:27.357Z,4.30
2023-12-05T01:02:07.184Z,3.47
2023-12-05T01:02:46.901Z,3.50
2023-12-05T01:03:26.714Z,3.45
2023-12-05T01:04:06.872Z,3.83
2023-12-05T01:04:46.971Z,3.30
2023-12-05T01:05:27.084Z,3.47
2023-12-05T01:06:21.238Z,3.22
2023-12-05T01:07:01.482Z,3.42
2023-12-05T01:07:41.198Z,3.13
2023-12-05T01:08:20.921Z,3.10
2023-12-05T01:09:00.736Z,3.25
2023-12-05T01:09:44.118Z,3.58
2023-12-05T01:10:24.252Z,3.53
2023-12-05T01:11:04.015Z,3.05
2023-12-05T01:11:43.702Z,3.65
2023-12-05T01:12:23.705Z,3.85
2023-12-05T01:13:13.052Z,3.38
2023-12-05T01:13:52.718Z,2.92
2023-12-05T01:14:32.505Z,3.45
2023-12-05T01:15:12.604Z,3.50
2023-12-05T01:15:52.762Z,3.25
2023-12-05T01:16:32.544Z,4.07
2023-12-05T01:17:12.275Z,3.22
2023-12-05T01:17:53.424Z,3.38
2023-12-05T01:18:33.515Z,3.80
2023-12-05T01:19:13.778Z,3.95
2023-12-05T01:19:53.513Z,3.50
2023-12-05T01:20:33.482Z,4.45
2023-12-05T01:21:13.550Z,3.72
2023-12-05T01:21:53.276Z,3.80
2023-12-05T01:22:33.019Z,3.63
2023-12-05T01:23:13.040Z,3.83
2023-12-05T01:23:52.772Z,3.63
2023-12-05T01:24:37.234Z,4.57
2023-12-05T01:25:18.189Z,5.40
2023-12-05T01:25:58.016Z,7.53
2023-12-05T01:26:37.773Z,6.43
2023-12-05T01:27:17.545Z,6.30
2023-12-05T01:27:57.457Z,5.22
2023-12-05T01:28:37.405Z,5.47
2023-12-05T01:29:17.133Z,5.28
2023-12-05T01:29:56.899Z,5.47
2023-12-05T01:30:37.306Z,7.63
2023-12-05T01:31:17.242Z,6.50
2023-12-05T01:31:57.226Z,9.20
2023-12-05T01:32:36.924Z,8.13
2023-12-05T01:33:16.782Z,6.88
2023-12-05T01:33:56.759Z,6.72
2023-12-05T01:34:37.280Z,5.88
2023-12-05T01:35:17.032Z,4.55
2023-12-05T01:35:56.824Z,5.45
2023-12-05T01:36:37.033Z,4.80
2023-12-05T01:37:16.736Z,4.97
2023-12-05T01:37:56.510Z,4.45
2023-12-05T01:38:37.540Z,3.55
2023-12-05T01:39:17.649Z,3.60
2023-12-05T01:39:57.463Z,3.53
2023-12-05T01:40:37.197Z,3.72
2023-12-05T01:41:18.235Z,3.40
2023-12-05T01:41:59.745Z,4.13
2023-12-05T01:42:40.871Z,3.60
2023-12-05T01:43:20.669Z,3.78
2023-12-05T01:44:00.394Z,3.50
2023-12-05T01:44:40.584Z,3.40
2023-12-05T01:45:20.399Z,3.92
2023-12-05T01:46:00.790Z,3.80
2023-12-05T01:46:40.607Z,3.55
2023-12-05T01:47:20.569Z,3.60
2023-12-05T01:48:00.643Z,4.05
2023-12-05T01:48:42.507Z,3.75
2023-12-05T01:49:28.941Z,3.90
2023-12-05T01:50:17.551Z,3.25
2023-12-05T01:50:57.816Z,3.80
2023-12-05T01:51:38.086Z,3.58
2023-12-05T01:52:18.722Z,3.38
2023-12-05T01:53:02.368Z,3.63
2023-12-05T01:53:43.566Z,3.90
2023-12-05T01:54:23.461Z,3.75
2023-12-05T01:55:03.326Z,3.53
2023-12-05T01:55:45.376Z,3.63
2023-12-05T01:56:25.196Z,3.42
2023-12-05T01:57:05.301Z,3.55
2023-12-05T01:57:47.759Z,3.63
2023-12-05T01:58:28.181Z,3.72
2023-12-05T01:59:09.229Z,4.13
2023-12-05T01:59:49.049Z,3.67
2023-12-05T02:00:29.884Z,3.70
2023-12-05T02:01:12.273Z,4.00
2023-12-05T02:01:52.532Z,3.28
2023-12-05T02:02:32.652Z,3.63
2023-12-05T02:03:12.658Z,3.65
2023-12-05T02:03:53.067Z,3.72
2023-12-05T02:04:33.574Z,3.28
2023-12-05T02:05:15.642Z,3.80
2023-12-05T02:05:56.774Z,3.95
2023-12-05T02:06:37.249Z,3.83
2023-12-05T02:07:18.201Z,4.00
2023-12-05T02:07:58.001Z,3.85
2023-12-05T02:08:39.300Z,3.67
2023-12-05T02:09:19.284Z,3.70
2023-12-05T02:09:59.070Z,3.33
2023-12-05T02:10:38.864Z,4.68
2023-12-05T02:11:18.930Z,3.92
2023-12-05T02:11:58.989Z,3.85
2023-12-05T02:12:41.816Z,4.05
2023-12-05T02:13:21.519Z,3.45
2023-12-05T02:14:01.522Z,4.03
2023-12-05T02:14:41.968Z,3.40
2023-12-05T02:15:21.982Z,3.88
2023-12-05T02:16:32.784Z,4.00
2023-12-05T02:17:26.577Z,3.40
2023-12-05T02:18:25.136Z,3.50
2023-12-05T02:19:30.022Z,3.58
2023-12-05T02:20:37.216Z,3.67
2023-12-05T02:21:22.837Z,3.17
2023-12-05T02:22:07.373Z,3.97
2023-12-05T02:23:19.377Z,3.30
2023-12-05T02:24:20.722Z,3.67
2023-12-05T02:25:21.207Z,3.38
2023-12-05T02:26:30.492Z,3.78
2023-12-05T02:27:43.913Z,3.38
2023-12-05T02:28:24.713Z,3.50
2023-12-05T02:29:05.419Z,3.28
2023-12-05T02:29:51.160Z,4.00
2023-12-05T02:31:10.092Z,3.47
2023-12-05T02:31:50.550Z,3.50
2023-12-05T02:32:30.332Z,3.10
2023-12-05T02:33:10.168Z,3.70
2023-12-05T02:33:51.543Z,3.30
2023-12-05T02:34:31.581Z,2.90
2023-12-05T02:35:13.440Z,3.75
2023-12-05T02:36:03.284Z,3.25
2023-12-05T02:36:57.969Z,3.15
2023-12-05T02:38:04.757Z,3.38
2023-12-05T02:39:19.569Z,3.45
2023-12-05T02:40:23.784Z,3.03
2023-12-05T02:41:12.216Z,3.65
2023-12-05T02:41:56.532Z,3.63
2023-12-05T02:43:26.752Z,3.47
2023-12-05T02:44:15.088Z,3.65
2023-12-05T02:44:57.160Z,3.20
2023-12-05T02:45:40.441Z,3.58
2023-12-05T02:46:21.998Z,3.65
2023-12-05T02:47:04.072Z,4.15
2023-12-05T02:47:47.076Z,3.55
2023-12-05T02:48:28.044Z,3.47
2023-12-05T02:49:09.301Z,3.65
2023-12-05T02:49:49.706Z,3.35
2023-12-05T02:50:33.978Z,3.35
2023-12-05T02:51:14.187Z,3.60
2023-12-05T02:51:56.088Z,4.03
2023-12-05T02:52:37.039Z,3.60
2023-12-05T02:53:16.913Z,3.85
2023-12-05T02:53:57.630Z,3.75
2023-12-05T02:54:37.532Z,3.58
2023-12-05T02:55:17.555Z,3.53
2023-12-05T02:55:57.345Z,4.30
2023-12-05T02:56:38.066Z,3.78
2023-12-05T02:57:17.990Z,3.50
2023-12-05T02:57:57.961Z,3.90
2023-12-05T02:58:37.687Z,3.60
2023-12-05T02:59:17.410Z,3.58
2023-12-05T02:59:57.266Z,3.42
2023-12-05T03:00:37.490Z,3.28
2023-12-05T03:01:17.245Z,3.70
2023-12-05T03:01:57.052Z,3.42
2023-12-05T03:02:36.811Z,3.50
2023-12-05T03:03:16.850Z,3.40
2023-12-05T03:03:56.677Z,3.20
2023-12-05T03:04:36.583Z,3.63
2023-12-05T03:05:16.530Z,3.75
2023-12-05T03:05:56.413Z,3.80
2023-12-05T03:06:36.549Z,3.20
2023-12-05T03:07:16.333Z,3.70
2023-12-05T03:07:56.122Z,3.03
2023-12-05T03:08:35.970Z,3.92
2023-12-05T03:09:15.802Z,3.60
2023-12-05T03:09:55.629Z,3.88
2023-12-05T03:10:35.330Z,3.22
2023-12-05T03:11:15.248Z,3.58
2023-12-05T03:11:54.946Z,3.63
2023-12-05T03:12:35.369Z,3.25
2023-12-05T03:13:15.122Z,3.38
2023-12-05T03:13:55.005Z,3.28
2023-12-05T03:14:35.168Z,3.40
2023-12-05T03:15:15.040Z,3.78
2023-12-05T03:15:55.318Z,3.20
2023-12-05T03:16:35.296Z,3.75
2023-12-05T03:17:15.379Z,3.50
2023-12-05T03:17:55.730Z,3.35
2023-12-05T03:18:35.952Z,3.83
2023-12-05T03:19:16.249Z,4.28
2023-12-05T03:19:56.601Z,3.17
2023-12-05T03:20:36.412Z,3.67
2023-12-05T03:21:22.626Z,3.72
2023-12-05T03:22:02.533Z,3.50
2023-12-05T03:22:42.598Z,3.60
2023-12-05T03:23:22.690Z,4.38
2023-12-05T03:24:02.627Z,3.40
2023-12-05T03:24:42.756Z,3.60
2023-12-05T03:25:22.705Z,3.50
2023-12-05T03:26:02.424Z,4.20
2023-12-05T03:26:43.499Z,3.42
2023-12-05T03:27:23.541Z,3.17
2023-12-05T03:28:03.329Z,3.85
2023-12-05T03:28:43.076Z,3.50
2023-12-05T03:29:22.839Z,3.85
2023-12-05T03:30:02.796Z,3.28
2023-12-05T03:30:42.811Z,3.65
2023-12-05T03:31:22.545Z,4.05
2023-12-05T03:32:02.304Z,3.50
2023-12-05T03:32:42.246Z,3.00
2023-12-05T03:33:21.954Z,3.35
2023-12-05T03:34:01.807Z,3.55
2023-12-05T03:34:42.001Z,3.03
2023-12-05T03:35:22.100Z,3.42
2023-12-05T03:36:01.820Z,3.33
2023-12-05T03:36:41.539Z,3.53
2023-12-05T03:37:21.298Z,3.30
2023-12-05T03:38:01.200Z,3.50
2023-12-05T03:38:41.849Z,3.40
2023-12-05T03:39:21.579Z,3.90
2023-12-05T03:40:01.365Z,3.17
2023-12-05T03:40:41.378Z,3.58
2023-12-05T03:41:21.142Z,3.97
2023-12-05T03:42:00.937Z,6.18
2023-12-05T03:42:40.734Z,8.13
2023-12-05T03:43:20.628Z,8.02
2023-12-05T03:44:00.373Z,7.53
2023-12-05T03:44:40.587Z,7.47
2023-12-05T03:45:20.484Z,4.13
2023-12-05T03:46:00.446Z,3.88
2023-12-05T03:46:40.294Z,3.53
2023-12-05T03:47:20.116Z,3.30
2023-12-05T03:47:59.826Z,3.78
2023-12-05T03:48:39.871Z,3.22
2023-12-05T03:49:19.821Z,3.33
2023-12-05T03:49:59.645Z,3.50
2023-12-05T03:50:39.324Z,3.15
2023-12-05T03:51:19.339Z,3.30
2023-12-05T03:51:59.171Z,3.78
2023-12-05T03:52:38.830Z,3.10
2023-12-05T03:53:18.573Z,3.50
2023-12-05T03:53:58.785Z,3.70
2023-12-05T03:54:38.619Z,3.95
2023-12-05T03:55:18.409Z,4.15
2023-12-05T03:55:58.203Z,3.50
2023-12-05T03:56:38.112Z,3.30
2023-12-05T03:57:18.040Z,3.70
2023-12-05T03:57:57.870Z,3.55
2023-12-05T03:58:37.603Z,3.58
2023-12-05T03:59:17.489Z,3.67
2023-12-05T03:59:57.195Z,3.53
2023-12-05T04:00:37.240Z,3.47
2023-12-05T04:01:18.356Z,3.33
2023-12-05T04:01:58.389Z,3.83
2023-12-05T04:02:38.278Z,4.00
2023-12-05T04:03:18.171Z,3.60
2023-12-05T04:03:58.076Z,3.55
2023-12-05T04:04:38.199Z,4.07
2023-12-05T04:05:18.359Z,4.00
2023-12-05T04:05:58.178Z,3.97
2023-12-05T04:06:38.222Z,3.40
2023-12-05T04:07:18.223Z,3.33
2023-12-05T04:07:57.979Z,3.67
2023-12-05T04:08:37.757Z,3.50
2023-12-05T04:09:17.530Z,3.55
2023-12-05T04:09:57.433Z,4.03
2023-12-05T04:10:37.185Z,3.45
2023-12-05T04:11:17.047Z,3.72
2023-12-05T04:11:56.786Z,4.00
2023-12-05T04:12:37.437Z,3.30
2023-12-05T04:13:17.353Z,4.53
2023-12-05T04:13:57.088Z,3.75
2023-12-05T04:14:37.636Z,4.22
2023-12-05T04:15:17.516Z,3.70
2023-12-05T04:15:57.368Z,3.90
2023-12-05T04:16:37.826Z,3.85
2023-12-05T04:17:17.481Z,3.58
2023-12-05T04:17:57.509Z,4.63
2023-12-05T04:18:37.530Z,3.85
2023-12-05T04:19:17.742Z,3.95
2023-12-05T04:19:58.123Z,3.92
2023-12-05T04:20:38.028Z,3.40
2023-12-05T04:21:22.295Z,4.20
2023-12-05T04:22:02.138Z,3.80
2023-12-05T04:22:41.954Z,3.60
2023-12-05T04:23:21.905Z,3.50
2023-12-05T04:24:02.612Z,3.65
2023-12-05T04:24:42.310Z,4.40
2023-12-05T04:25:22.044Z,3.78
2023-12-05T04:26:01.920Z,3.50
2023-12-05T04:26:41.738Z,3.78
2023-12-05T04:27:22.554Z,3.88
2023-12-05T04:28:02.228Z,4.63
2023-12-05T04:28:42.128Z,4.10
2023-12-05T04:29:22.134Z,4.20
2023-12-05T04:30:02.004Z,4.15
2023-12-05T04:30:42.004Z,4.72
2023-12-05T04:31:22.166Z,3.95
2023-12-05T04:32:04.166Z,3.88
2023-12-05T04:32:43.996Z,4.07
2023-12-05T04:33:23.841Z,4.28
2023-12-05T04:34:03.950Z,3.90
2023-12-05T04:34:45.347Z,3.80
2023-12-05T04:35:25.071Z,5.05
2023-12-05T04:36:04.872Z,4.10
2023-12-05T04:36:44.720Z,4.35
2023-12-05T04:37:24.469Z,4.18
2023-12-05T04:38:04.199Z,4.95
2023-12-05T04:38:43.959Z,4.50
2023-12-05T04:39:24.143Z,4.63
2023-12-05T04:40:04.226Z,4.45
2023-12-05T04:40:43.971Z,5.70
2023-12-05T04:41:23.783Z,4.53
2023-12-05T04:42:04.013Z,4.30
2023-12-05T04:42:43.836Z,4.28
2023-12-05T04:43:23.663Z,4.72
2023-12-05T04:44:03.558Z,4.03
2023-12-05T04:44:43.479Z,4.70
2023-12-05T04:45:23.256Z,4.28
2023-12-05T04:46:02.987Z,4.07
2023-12-05T04:46:42.743Z,4.20
2023-12-05T04:47:22.681Z,4.32
2023-12-05T04:48:02.548Z,4.30
2023-12-05T04:48:42.441Z,4.63
2023-12-05T04:49:22.426Z,4.15
2023-12-05T04:50:02.413Z,4.32
2023-12-05T04:50:43.184Z,4.22
2023-12-05T04:51:23.136Z,4.70
2023-12-05T04:52:03.026Z,5.78
2023-12-05T04:52:42.952Z,3.88
2023-12-05T04:53:22.694Z,4.65
2023-12-05T04:54:02.562Z,4.13
2023-12-05T04:54:42.740Z,4.63
2023-12-05T04:55:22.736Z,4.30
2023-12-05T04:56:02.769Z,5.05
2023-12-05T04:56:42.511Z,5.25
2023-12-05T04:57:22.469Z,4.13
2023-12-05T04:58:02.405Z,4.50
2023-12-05T04:58:42.110Z,3.90
2023-12-05T04:59:21.814Z,4.32
2023-12-05T05:00:01.526Z,3.67
2023-12-05T05:00:41.625Z,4.47
2023-12-05T05:01:21.632Z,4.57
2023-12-05T05:02:01.491Z,3.63
2023-12-05T05:02:41.311Z,3.42
2023-12-05T05:03:21.309Z,4.47
2023-12-05T05:04:02.668Z,3.70
2023-12-05T05:04:44.355Z,3.83
2023-12-05T05:05:24.291Z,3.45
2023-12-05T05:06:04.377Z,3.63
2023-12-05T05:06:44.206Z,3.30
2023-12-05T05:07:24.084Z,3.67
2023-12-05T05:08:03.820Z,3.58
2023-12-05T05:08:44.446Z,3.47
2023-12-05T05:09:24.116Z,3.60
2023-12-05T05:10:03.863Z,3.13
2023-12-05T05:10:43.667Z,3.63
2023-12-05T05:11:25.166Z,3.65
2023-12-05T05:12:06.114Z,3.40
2023-12-05T05:12:46.505Z,3.20
2023-12-05T05:13:26.208Z,3.15
2023-12-05T05:14:06.522Z,3.83
2023-12-05T05:14:46.646Z,3.13
2023-12-05T05:15:26.466Z,3.40
2023-12-05T05:16:08.597Z,3.15
2023-12-05T05:16:48.564Z,3.30
2023-12-05T05:17:28.383Z,3.22
2023-12-05T05:18:08.152Z,3.10
2023-12-05T05:18:48.017Z,3.05
2023-12-05T05:19:27.993Z,3.15
2023-12-05T05:20:08.555Z,3.22
2023-12-05T05:20:48.382Z,2.83
2023-12-05T05:21:28.930Z,3.20
2023-12-05T05:22:08.859Z,3.33
2023-12-05T05:22:51.673Z,3.13
2023-12-05T05:23:31.582Z,3.50
2023-12-05T05:24:11.499Z,2.92
2023-12-05T05:24:51.520Z,3.67
2023-12-05T05:25:31.411Z,3.30
2023-12-05T05:26:11.273Z,3.20
2023-12-05T05:26:51.043Z,3.00
2023-12-05T05:27:32.315Z,2.95
2023-12-05T05:28:12.026Z,3.20
2023-12-05T05:28:51.708Z,3.13
2023-12-05T05:29:31.429Z,3.65
2023-12-05T05:30:12.390Z,3.10
2023-12-05T05:30:56.609Z,2.92
2023-12-05T05:31:36.373Z,2.97
2023-12-05T05:32:16.093Z,3.65
2023-12-05T05:32:56.118Z,3.20
2023-12-05T05:33:36.076Z,3.08
2023-12-05T05:34:15.873Z,2.88
2023-12-05T05:34:55.523Z,3.20
2023-12-05T05:35:35.385Z,3.45
2023-12-05T05:36:18.197Z,2.90
2023-12-05T05:36:58.443Z,3.33
2023-12-05T05:37:38.470Z,3.10
2023-12-05T05:38:18.872Z,3.22
2023-12-05T05:38:58.742Z,3.10
2023-12-05T05:39:38.436Z,3.00
2023-12-05T05:40:18.194Z,2.92
2023-12-05T05:41:09.011Z,2.83
2023-12-05T05:41:49.003Z,3.05
2023-12-05T05:42:28.792Z,3.35
2023-12-05T05:43:08.650Z,2.97
2023-12-05T05:43:48.643Z,3.28
2023-12-05T05:44:29.644Z,2.85
2023-12-05T05:45:09.940Z,3.25
2023-12-05T05:45:49.642Z,3.05
2023-12-05T05:46:29.575Z,3.00
2023-12-05T05:47:09.269Z,2.88
2023-12-05T05:47:50.952Z,2.97
2023-12-05T05:48:30.980Z,3.05
2023-12-05T05:49:11.082Z,3.10
2023-12-05T05:49:51.256Z,2.80
2023-12-05T05:50:31.029Z,3.10
2023-12-05T05:51:11.029Z,3.20
2023-12-05T05:51:50.903Z,2.90
2023-12-05T05:52:30.758Z,2.83
2023-12-05T05:53:10.457Z,2.72
2023-12-05T05:53:50.188Z,3.35
2023-12-05T05:54:30.102Z,2.95
2023-12-05T05:55:10.190Z,3.20
2023-12-05T05:55:49.929Z,2.95
2023-12-05T05:56:29.632Z,3.03
2023-12-05T05:57:09.495Z,3.47
2023-12-05T05:57:49.258Z,3.47
2023-12-05T05:58:29.798Z,2.67
2023-12-05T05:59:09.567Z,3.28
2023-12-05T05:59:49.595Z,3.13
2023-12-05T06:00:29.383Z,3.20
2023-12-05T06:01:09.329Z,3.15
2023-12-05T06:01:50.082Z,3.00
2023-12-05T06:02:30.049Z,3.45
2023-12-05T06:03:10.846Z,3.03
2023-12-05T06:03:50.607Z,2.53
2023-12-05T06:04:30.496Z,2.83
2023-12-05T06:05:10.733Z,3.00
2023-12-05T06:05:50.855Z,2.75
2023-12-05T06:06:30.681Z,2.63
2023-12-05T06:07:10.883Z,3.00
2023-12-05T06:07:50.890Z,3.45
2023-12-05T06:08:30.575Z,3.38
2023-12-05T06:09:11.301Z,2.97
2023-12-05T06:09:51.120Z,2.88
2023-12-05T06:10:31.170Z,2.85
2023-12-05T06:11:11.172Z,3.08
2023-12-05T06:11:51.009Z,3.15
2023-12-05T06:12:30.833Z,3.15
2023-12-05T06:13:10.976Z,3.00
2023-12-05T06:13:50.691Z,2.78
2023-12-05T06:14:30.666Z,2.92
2023-12-05T06:15:10.779Z,3.00
2023-12-05T06:15:50.769Z,3.10
2023-12-05T06:16:30.974Z,2.90
2023-12-05T06:17:10.726Z,2.90
2023-12-05T06:17:50.518Z,2.95
2023-12-05T06:18:30.509Z,3.00
2023-12-05T06:19:10.269Z,2.65
2023-12-05T06:19:50.082Z,3.20
2023-12-05T06:20:29.773Z,2.90
2023-12-05T06:21:10.090Z,2.50
2023-12-05T06:21:50.134Z,2.70
2023-12-05T06:22:29.888Z,2.92
2023-12-05T06:23:09.642Z,3.63
2023-12-05T06:23:49.742Z,2.80
2023-12-05T06:24:29.493Z,2.88
2023-12-05T06:25:09.528Z,2.85
2023-12-05T06:25:49.246Z,3.00
2023-12-05T06:26:29.462Z,2.83
2023-12-05T06:27:09.553Z,2.45
2023-12-05T06:27:50.128Z,3.30
2023-12-05T06:28:30.520Z,2.85
2023-12-05T06:29:10.602Z,2.67
2023-12-05T06:29:50.372Z,3.17
2023-12-05T06:30:30.209Z,2.95
2023-12-05T06:31:10.337Z,3.00
2023-12-05T06:31:50.289Z,3.22
2023-12-05T06:32:30.350Z,3.28
2023-12-05T06:33:10.231Z,3.13
2023-12-05T06:33:51.012Z,3.13
2023-12-05T06:34:31.068Z,3.17
2023-12-05T06:35:11.110Z,3.22
2023-12-05T06:35:50.989Z,2.72
2023-12-05T06:36:30.882Z,3.70
2023-12-05T06:37:10.891Z,3.30
2023-12-05T06:37:54.646Z,2.95
2023-12-05T06:38:34.489Z,3.10
2023-12-05T06:39:14.901Z,3.42
2023-12-05T06:39:55.028Z,2.97
2023-12-05T06:40:34.805Z,3.35
2023-12-05T06:41:14.842Z,2.90
2023-12-05T06:41:54.571Z,3.10
2023-12-05T06:42:34.647Z,3.38
2023-12-05T06:43:14.538Z,2.88
2023-12-05T06:43:54.358Z,2.90
2023-12-05T06:44:34.101Z,2.88
2023-12-05T06:45:14.039Z,3.00
2023-12-05T06:45:53.814Z,2.90
2023-12-05T06:46:33.627Z,3.17
2023-12-05T06:47:13.375Z,3.03
2023-12-05T06:47:53.441Z,3.10
2023-12-05T06:48:33.534Z,2.90
2023-12-05T06:49:13.516Z,3.28
2023-12-05T06:49:57.423Z,3.00
2023-12-05T06:50:38.050Z,2.63
2023-12-05T06:51:21.024Z,2.95
2023-12-05T06:52:02.762Z,2.90
2023-12-05T06:52:42.821Z,2.65
2023-12-05T06:53:22.714Z,3.42
2023-12-05T06:54:02.577Z,2.95
2023-12-05T06:54:42.366Z,2.33
2023-12-05T06:55:22.236Z,2.80
2023-12-05T06:56:02.299Z,2.65
2023-12-05T06:56:42.069Z,3.38
2023-12-05T06:57:21.898Z,2.50
2023-12-05T06:58:01.740Z,2.95
2023-12-05T06:58:41.645Z,2.55
2023-12-05T06:59:21.911Z,2.55
2023-12-05T07:00:01.726Z,2.60
2023-12-05T07:00:42.079Z,3.00
2023-12-05T07:01:22.035Z,3.38
2023-12-05T07:02:01.933Z,3.15
2023-12-05T07:02:41.929Z,3.20
2023-12-05T07:03:21.941Z,2.60
2023-12-05T07:04:02.268Z,2.58
2023-12-05T07:04:42.527Z,2.80
2023-12-05T07:05:22.711Z,2.53
2023-12-05T07:06:02.755Z,3.65
2023-12-05T07:06:44.432Z,3.17
2023-12-05T07:07:25.010Z,2.80
2023-12-05T07:08:05.569Z,2.72
2023-12-05T07:08:45.707Z,3.40
2023-12-05T07:09:25.769Z,3.05
2023-12-05T07:10:07.982Z,3.08
2023-12-05T07:10:47.792Z,2.72
2023-12-05T07:11:28.487Z,3.33
2023-12-05T07:12:08.896Z,2.75
2023-12-05T07:12:48.707Z,2.58
2023-12-05T07:13:28.537Z,2.50
2023-12-05T07:14:10.076Z,2.50
2023-12-05T07:14:50.161Z,2.67
2023-12-05T07:15:30.198Z,2.97
2023-12-05T07:16:10.721Z,2.70
2023-12-05T07:16:50.583Z,2.78
2023-12-05T07:17:30.635Z,2.45
2023-12-05T07:18:11.300Z,2.75
2023-12-05T07:18:51.850Z,3.00
2023-12-05T07:19:31.814Z,2.90
2023-12-05T07:20:12.390Z,2.83
2023-12-05T07:20:53.277Z,2.42
2023-12-05T07:21:33.477Z,2.80
2023-12-05T07:22:14.047Z,2.25
2023-12-05T07:22:54.030Z,2.95
2023-12-05T07:23:33.915Z,2.88
2023-12-05T07:24:13.891Z,3.13
2023-12-05T07:24:53.711Z,2.65
2023-12-05T07:25:33.848Z,3.55
2023-12-05T07:26:13.740Z,2.90
2023-12-05T07:26:54.998Z,2.70
2023-12-05T07:27:36.280Z,2.80
2023-12-05T07:28:17.580Z,2.70
2023-12-05T07:28:57.630Z,3.10
2023-12-05T07:29:37.519Z,2.70
2023-12-05T07:30:17.601Z,2.40
2023-12-05T07:30:59.446Z,3.40
2023-12-05T07:31:39.622Z,2.75
2023-12-05T07:32:19.535Z,3.00
2023-12-05T07:32:59.792Z,2.63
2023-12-05T07:33:40.030Z,2.75
2023-12-05T07:34:20.166Z,2.45
2023-12-05T07:35:00.383Z,2.78
2023-12-05T07:35:40.393Z,2.65
2023-12-05T07:36:20.466Z,2.80
2023-12-05T07:37:00.954Z,2.47
2023-12-05T07:37:40.854Z,2.70
2023-12-05T07:38:20.793Z,2.60
2023-12-05T07:39:01.195Z,2.58
2023-12-05T07:39:41.168Z,2.47
2023-12-05T07:40:21.574Z,3.28
2023-12-05T07:41:01.569Z,3.13
2023-12-05T07:41:42.316Z,2.63
2023-12-05T07:42:22.729Z,2.92
2023-12-05T07:43:02.655Z,2.72
2023-12-05T07:43:42.559Z,2.97
2023-12-05T07:44:22.758Z,2.35
2023-12-05T07:45:03.986Z,2.40
2023-12-05T07:45:44.096Z,2.65
2023-12-05T07:46:24.031Z,3.03
2023-12-05T07:47:05.125Z,2.80
2023-12-05T07:47:45.351Z,2.53
2023-12-05T07:48:25.433Z,3.20
2023-12-05T07:49:05.465Z,2.72
2023-12-05T07:49:48.581Z,2.58
2023-12-05T07:50:28.484Z,3.20
2023-12-05T07:51:08.564Z,2.58
2023-12-05T07:51:50.322Z,2.63
2023-12-05T07:52:30.451Z,3.28
2023-12-05T07:53:10.386Z,2.58
2023-12-05T07:53:55.277Z,2.47
2023-12-05T07:54:35.180Z,2.83
2023-12-05T07:55:15.361Z,2.47
2023-12-05T07:55:55.239Z,2.60
2023-12-05T07:56:35.379Z,2.50
2023-12-05T07:57:17.149Z,2.38
2023-12-05T07:57:57.645Z,2.70
2023-12-05T07:58:37.823Z,2.65
2023-12-05T07:59:17.767Z,2.58
2023-12-05T07:59:58.520Z,2.83
2023-12-05T08:00:41.916Z,2.60
2023-12-05T08:01:21.800Z,2.58
2023-12-05T08:02:02.634Z,2.70
2023-12-05T08:02:43.551Z,3.67
2023-12-05T08:03:23.807Z,5.80
2023-12-05T08:04:04.914Z,4.05
2023-12-05T08:04:45.112Z,3.63
2023-12-05T08:05:25.157Z,3.20
2023-12-05T08:06:05.956Z,7.72
2023-12-05T08:06:46.049Z,5.10
2023-12-05T08:07:26.119Z,5.78
2023-12-05T08:08:09.525Z,3.50
2023-12-05T08:08:49.732Z,2.90
2023-12-05T08:09:29.883Z,3.05
2023-12-05T08:10:13.124Z,2.40
2023-12-05T08:10:53.204Z,2.50
2023-12-05T08:11:33.284Z,2.33
2023-12-05T08:12:13.289Z,2.70
2023-12-05T08:12:53.701Z,3.13
2023-12-05T08:13:33.710Z,15.63
2023-12-05T08:14:14.429Z,3.05
2023-12-05T08:14:54.696Z,2.47
2023-12-05T08:15:34.590Z,3.63
2023-12-05T08:16:14.552Z,2.88
2023-12-05T08:16:54.648Z,2.63
2023-12-05T08:17:34.652Z,3.38
2023-12-05T08:18:14.721Z,2.88
2023-12-05T08:18:54.812Z,2.63
2023-12-05T08:19:35.196Z,3.10
2023-12-05T08:20:15.186Z,2.88
2023-12-05T08:20:55.195Z,2.30
2023-12-05T08:21:35.499Z,2.72
2023-12-05T08:22:15.865Z,3.28
2023-12-05T08:22:55.878Z,2.42
2023-12-05T08:23:35.902Z,2.70
2023-12-05T08:24:15.908Z,2.75
2023-12-05T08:24:56.074Z,2.30
2023-12-05T08:25:36.302Z,3.38
2023-12-05T08:26:16.226Z,3.13
2023-12-05T08:26:56.020Z,2.60
2023-12-05T08:27:37.574Z,2.50
2023-12-05T08:28:18.168Z,2.33
2023-12-05T08:28:58.138Z,2.50
2023-12-05T08:29:37.980Z,2.40
2023-12-05T08:30:18.284Z,2.53
2023-12-05T08:30:58.347Z,2.80
2023-12-05T08:31:38.354Z,2.58
2023-12-05T08:32:18.220Z,2.50
2023-12-05T08:32:59.360Z,2.42
2023-12-05T08:33:39.887Z,3.20
2023-12-05T08:34:19.876Z,2.15
2023-12-05T08:35:00.958Z,2.25
2023-12-05T08:35:41.247Z,2.78
2023-12-05T08:36:21.795Z,2.38
2023-12-05T08:37:02.056Z,2.50
2023-12-05T08:37:42.679Z,2.63
2023-12-05T08:38:23.166Z,2.97
2023-12-05T08:39:03.073Z,2.13
2023-12-05T08:39:43.293Z,2.70
2023-12-05T08:40:23.176Z,2.63
2023-12-05T08:41:03.296Z,2.80
2023-12-05T08:41:43.614Z,2.45
2023-12-05T08:42:23.732Z,2.33
2023-12-05T08:43:05.833Z,2.50
2023-12-05T08:43:45.961Z,2.65
2023-12-05T08:44:25.913Z,2.92
2023-12-05T08:45:06.160Z,2.65
2023-12-05T08:45:46.182Z,2.92
2023-12-05T08:46:26.294Z,2.72
2023-12-05T08:47:08.758Z,2.85
2023-12-05T08:47:48.722Z,2.35
2023-12-05T08:48:28.737Z,2.60
2023-12-05T08:49:09.012Z,2.58
2023-12-05T08:49:48.877Z,2.78
2023-12-05T08:50:29.180Z,2.42
2023-12-05T08:51:09.742Z,2.92
2023-12-05T08:51:49.831Z,2.38
2023-12-05T08:52:30.132Z,2.88
2023-12-05T08:53:10.926Z,2.42
2023-12-05T08:53:50.892Z,2.50
2023-12-05T08:54:31.208Z,2.90
2023-12-05T08:55:11.179Z,2.50
2023-12-05T08:55:51.041Z,2.17
2023-12-05T08:56:30.783Z,2.55
2023-12-05T08:57:12.054Z,2.78
2023-12-05T08:57:52.210Z,2.22
2023-12-05T08:58:32.242Z,1.90
2023-12-05T08:59:12.084Z,2.33
2023-12-05T08:59:52.217Z,2.42
2023-12-05T09:00:32.156Z,2.35
2023-12-05T09:01:15.143Z,2.30
2023-12-05T09:01:55.099Z,2.70
2023-12-05T09:02:35.301Z,2.50
2023-12-05T09:03:16.442Z,2.20
2023-12-05T09:03:56.980Z,2.42
2023-12-05T09:04:39.701Z,2.45